Latest Weather Observations for Maatsuyker Island

IDT60801

Issued at 12:31 pm EST Friday 3 July 2015 (issued every 30 minutes, with the page automatically refreshed every 10 minutes)

About weather observations | Map of weather stations | Latest weather observations for TAS | Other Formats
Station Details ID: 094041 Name: MAATSUYKER ISLAND LIGHTHOUSE Lat: -43.66 Lon: 146.27 Height: 146.5 m
Data from the previous 72 hours. | See also: Recent months at Maatsuyker Island
Date/Time
EST
Temp
°C
App
Temp
°C
Dew
Point
Rel
Hum
%
Delta-T
°C
Wind Press
QNH
hPa
Press
MSL
hPa
Rain
since 9 am
mm
Dir
 
Spd
km/h
Gust
km/h
Spd
kts
Gust
kts
03/12:30pm 7.4 -8.0 5.9 90 0.7 NW 76 91 41 49 1016.4 - 1.2
03/12:26pm 7.7 -8.4 6.2 90 0.7 NW 80 91 43 49 1016.5 - 1.2
03/12:14pm 8.1 -4.6 5.0 81 1.4 NNW 61 80 33 43 1017.3 - 1.2
03/12:05pm 8.1 -6.0 5.4 83 1.2 NNW 69 80 37 43 1016.9 - 1.0
03/12:00pm 7.6 -2.4 6.1 90 0.7 NNW 48 70 26 38 1017.4 1017.6 1.0
03/11:30am 7.5 -2.1 6.2 91 0.6 NNW 46 72 25 39 1018.1 - 1.0
03/11:29am 7.3 -1.7 6.6 95 0.3 NNW 43 69 23 37 1018.3 - 1.0
03/11:00am 7.1 -1.6 6.2 94 0.4 NNW 41 52 22 28 1019.0 - 0.4
03/10:45am 6.9 -1.4 6.0 94 0.4 NNW 39 57 21 31 1019.3 - 0.2
03/10:30am 6.7 -2.0 6.0 95 0.3 NNW 41 56 22 30 1019.3 - 0.2
03/10:09am 6.8 -2.9 5.9 94 0.4 NNW 46 67 25 36 1019.8 - 0.2
03/10:00am 7.2 -4.6 5.9 91 0.6 NW 57 69 31 37 1019.5 - 0.2
03/09:58am 7.2 -4.5 6.1 93 0.5 NW 57 69 31 37 1019.4 - 0.2
03/09:46am 6.9 -1.2 5.3 89 0.7 NNW 37 57 20 31 1019.9 - 0.0
03/09:30am 6.7 -1.8 5.3 91 0.6 NNW 39 50 21 27 1020.1 - 0.0
03/09:00am 7.0 -1.0 5.7 91 0.6 WNW 37 50 20 27 1020.3 1020.5 1.0
03/08:30am 6.8 -1.2 5.7 93 0.5 NNW 37 54 20 29 1020.3 - 1.0
03/08:00am 6.7 -1.4 5.3 91 0.6 NNW 37 50 20 27 1020.3 - 1.0
03/07:30am 7.2 -2.0 5.6 89 0.7 NNW 43 59 23 32 1020.1 - 1.0
03/07:07am 7.0 -3.6 5.0 87 0.9 NW 50 69 27 37 1020.2 - 1.0
03/07:00am 7.3 -5.0 5.0 85 1.0 NW 59 69 32 37 1019.8 - 1.0
03/06:42am 7.1 -6.9 6.0 93 0.5 NW 69 76 37 41 1019.4 - 1.0
03/06:30am 8.0 -2.8 3.9 75 1.8 NNW 50 59 27 32 1019.8 - 0.8
03/05:30am 8.0 -3.9 4.1 76 1.7 NW 56 70 30 38 1019.5 - 0.8
03/05:00am 8.0 -4.3 3.1 71 2.1 NW 57 69 31 37 1020.0 - 0.8
03/04:30am 8.0 -5.4 1.4 63 2.7 NW 61 69 33 37 1019.8 - 0.8
03/04:00am 7.9 -4.7 3.7 75 1.8 NW 59 69 32 37 1020.5 - 0.8
03/03:30am 7.6 -3.7 3.6 76 1.7 NW 52 59 28 32 1020.8 - 0.8
03/03:00am 8.0 -3.5 2.2 67 2.4 NW 52 63 28 34 1021.4 1021.7 0.8
03/02:30am 8.0 -4.3 2.2 67 2.4 NW 56 65 30 35 1021.7 - 0.8
03/02:00am 7.7 -4.7 4.8 82 1.3 NW 59 69 32 37 1021.3 - 0.8
03/01:30am 6.8 -4.8 3.8 81 1.3 NW 54 65 29 35 1021.5 - 0.8
03/01:00am 7.1 -4.4 4.3 82 1.2 NW 54 63 29 34 1021.7 - 0.8
03/12:30am 7.4 -2.6 2.3 70 2.1 WNW 44 52 24 28 1022.0 - 0.8
03/12:00am 7.5 -0.8 2.2 69 2.2 WNW 35 44 19 24 1022.2 1022.5 0.8
 
Date/Time
EST
Temp
°C
App
Temp
°C
Dew
Point
Rel
Hum
%
Delta-T
°C
Wind Press
QNH
hPa
Press
MSL
hPa
Rain
since 9 am
mm
Dir
 
Spd
km/h
Gust
km/h
Spd
kts
Gust
kts
02/11:57pm 7.3 -3.7 3.0 74 1.8 NW 50 59 27 32 1021.6 - 0.8
02/11:45pm 7.6 -0.5 3.1 73 1.9 WNW 35 56 19 30 1021.8 - 0.8
02/11:30pm 7.4 -2.5 1.5 66 2.4 WNW 43 57 23 31 1022.3 - 0.8
02/11:00pm 7.5 -1.8 0.5 61 2.8 W 39 50 21 27 1022.3 - 0.8
02/10:30pm 7.3 -2.4 0.5 62 2.7 W 41 52 22 28 1022.4 - 0.8
02/10:00pm 7.2 -2.8 1.0 65 2.5 WNW 43 56 23 30 1022.0 - 0.6
02/09:30pm 7.3 -1.6 0.8 63 2.6 W 37 48 20 26 1021.9 - 0.6
02/09:00pm 6.5 -3.0 -0.5 61 2.7 W 39 59 21 32 1022.0 1022.3 0.6
02/08:48pm 6.8 -1.7 1.1 67 2.3 W 35 54 19 29 1021.9 - 0.6
02/08:38pm 6.5 -1.6 1.0 68 2.2 W 33 44 18 24 1021.7 - 0.6
02/08:35pm 6.4 -2.4 1.4 70 2.0 WSW 37 46 20 25 1021.8 - 0.6
02/08:30pm 6.5 -1.9 1.5 70 2.0 W 35 57 19 31 1021.7 - 0.6
02/08:29pm 6.5 -1.9 1.8 72 1.9 W 35 57 19 31 1021.8 - 0.6
02/08:28pm 6.4 -1.4 2.0 73 1.8 W 32 41 17 22 1021.7 - 0.6
02/08:15pm 6.1 -2.4 3.2 82 1.2 WSW 37 56 20 30 1021.8 - 0.6
02/08:11pm 6.4 -3.4 2.3 75 1.7 WSW 43 56 23 30 1021.8 - 0.6
02/08:00pm 7.0 -3.3 0.1 61 2.7 W 44 54 24 29 1021.3 - 0.6
02/07:30pm 6.4 -4.6 0.6 66 2.3 W 48 61 26 33 1020.9 - 0.6
02/07:05pm 6.2 -3.8 0.9 69 2.1 W 43 61 23 33 1020.8 - 0.6
02/07:00pm 6.4 -3.7 1.7 72 1.9 W 44 61 24 33 1020.8 - 0.6
02/06:35pm 6.2 -2.6 1.2 70 2.0 W 37 57 20 31 1020.5 - 0.6
02/06:30pm 6.3 -2.4 1.9 73 1.8 W 37 50 20 27 1020.5 - 0.6
02/06:28pm 6.3 -2.9 1.3 70 2.0 W 39 57 21 31 1020.3 - 0.6
02/06:00pm 6.6 -2.7 0.5 65 2.4 W 39 52 21 28 1020.0 1020.2 0.6
02/05:33pm 6.1 -1.9 1.4 72 1.9 W 33 52 18 28 1019.8 - 0.6
02/05:30pm 6.2 -2.6 1.2 70 2.0 W 37 54 20 29 1019.8 - 0.6
02/05:00pm 6.6 -3.4 -2.0 54 3.2 W 41 52 22 28 1019.3 - 0.6
02/04:45pm 6.5 -2.5 0.4 65 2.4 W 37 50 20 27 1019.2 - 0.6
02/04:39pm 6.3 -3.4 0.4 66 2.3 WSW 41 59 22 32 1019.2 - 0.6
02/04:30pm 5.9 -4.4 0.5 68 2.1 SW 44 61 24 33 1019.1 - 0.6
02/04:21pm 6.6 -3.4 1.1 68 2.2 WSW 43 61 23 33 1018.9 - 0.6
02/04:02pm 6.3 -3.8 0.4 66 2.3 WNW 43 61 23 33 1018.7 - 0.6
02/04:00pm 6.3 -4.3 0.7 67 2.2 WNW 46 63 25 34 1018.6 - 0.6
02/03:36pm 6.5 -1.4 1.3 69 2.1 W 32 54 17 29 1018.2 - 0.6
02/03:30pm 5.7 -1.3 2.0 77 1.5 W 28 39 15 21 1018.0 - 0.6
02/03:05pm 6.8 -2.1 0.8 65 2.4 W 37 59 20 32 1017.7 - 0.6
02/03:00pm 6.4 -2.7 1.7 72 1.9 W 39 52 21 28 1017.6 1017.8 0.6
02/02:45pm 6.3 -2.2 0.7 67 2.2 W 35 57 19 31 1017.4 - 0.6
02/02:41pm 5.8 -2.0 1.6 74 1.7 W 32 43 17 23 1017.3 - 0.6
02/02:30pm 6.8 -2.0 1.6 69 2.1 WSW 37 57 20 31 1017.0 - 0.6
02/02:00pm 6.0 -4.5 1.5 73 1.8 WSW 46 67 25 36 1016.8 - 0.6
02/01:30pm 5.7 -3.2 3.1 83 1.1 WSW 39 61 21 33 1016.2 - 0.6
02/01:26pm 7.2 -1.6 1.6 67 2.3 WSW 37 59 20 32 1016.2 - 0.4
02/01:20pm 7.1 -3.0 0.3 62 2.7 WSW 43 52 23 28 1016.0 - 0.4
02/01:03pm 6.8 -2.2 2.2 72 1.9 W 39 65 21 35 1015.9 - 0.4
02/01:00pm 6.7 -2.3 2.6 75 1.7 WSW 39 54 21 29 1015.8 - 0.4
02/12:37pm 6.4 -3.0 2.5 76 1.6 WSW 41 59 22 32 1015.5 - 0.4
02/12:33pm 6.3 -3.3 3.2 80 1.3 WSW 43 56 23 30 1015.4 - 0.4
02/12:30pm 6.5 -3.3 2.4 75 1.7 W 43 59 23 32 1015.5 - 0.4
02/12:00pm 7.0 -2.3 2.7 74 1.8 W 41 67 22 36 1015.1 1015.4 0.4
02/11:30am 6.3 -1.6 2.4 76 1.6 W 33 57 18 31 1014.6 - 0.2
02/11:27am 7.1 0.2 2.8 74 1.8 W 28 56 15 30 1014.5 - 0.2
02/11:24am 6.9 -0.5 2.0 71 2.0 WSW 30 41 16 22 1014.5 - 0.2
02/11:05am 6.1 -3.6 2.7 79 1.4 SW 43 63 23 34 1014.6 - 0.2
02/11:04am 6.1 -3.7 2.5 78 1.5 SW 43 54 23 29 1014.6 - 0.2
02/11:01am 6.3 -3.5 3.2 80 1.3 WSW 44 63 24 34 1014.6 - 0.2
02/11:00am 6.5 -3.8 2.9 78 1.5 WSW 46 63 25 34 1014.5 - 0.2
02/10:58am 6.4 -4.3 2.8 78 1.5 W 48 63 26 34 1014.6 - 0.2
02/10:30am 6.8 -4.0 2.2 72 1.9 SW 48 67 26 36 1013.7 - 0.2
02/10:18am 7.6 -3.4 0.6 61 2.8 WSW 48 67 26 36 1013.2 - 0.2
02/10:00am 6.5 -3.9 2.1 73 1.8 WSW 46 56 25 30 1012.8 - 0.2
02/09:45am 6.8 -3.5 2.7 75 1.7 SSW 46 67 25 36 1012.3 - 0.2
02/09:42am 6.6 -5.3 2.2 73 1.8 SSW 54 67 29 36 1012.2 - 0.2
02/09:34am 6.4 -4.3 2.3 75 1.7 WSW 48 65 26 35 1012.4 - 0.0
02/09:31am 6.0 -3.5 1.8 74 1.7 W 41 59 22 32 1012.3 - 0.0
02/09:30am 5.9 -4.0 1.7 74 1.7 W 43 59 23 32 1012.4 - 0.0
02/09:18am 5.9 -3.6 3.8 86 0.9 W 43 70 23 38 1012.3 - 0.0
02/09:14am 5.9 -2.6 3.0 82 1.2 WSW 37 54 20 29 1012.1 - 0.0
02/09:13am 5.8 -6.4 2.7 80 1.3 WSW 56 - 30 - - 1012.2 -
02/09:00am 5.3 -6.9 2.9 84 1.0 WSW 56 - 30 - - 1012.2 14.0
02/08:58am 5.9 -6.2 3.3 83 1.1 WSW 56 76 30 41 1011.9 - 14.0
02/08:57am 6.3 -5.4 3.2 80 1.3 WSW 54 69 29 37 1011.7 - 14.0
02/08:54am 6.6 -3.8 2.2 73 1.8 W 46 67 25 36 1011.6 - 14.0
02/08:42am 5.8 -4.5 2.7 80 1.3 W 46 57 25 31 1011.3 - 14.0
02/08:30am 6.4 -5.6 3.6 82 1.2 WSW 56 78 30 42 1011.0 - 14.0
02/08:27am 6.4 -6.0 2.8 78 1.5 WSW 57 76 31 41 1011.0 - 14.0
02/08:00am 7.4 -3.9 1.0 64 2.6 W 50 69 27 37 1010.0 - 14.0
02/07:55am 7.3 -3.7 0.9 64 2.6 W 48 69 26 37 1009.9 - 14.0
02/07:50am 7.1 -3.5 0.9 65 2.5 W 46 57 25 31 1009.9 - 14.0
02/07:45am 6.7 -4.3 1.0 67 2.3 WSW 48 69 26 37 1009.9 - 14.0
02/07:43am 6.9 -5.2 0.9 65 2.4 WSW 54 69 29 37 1010.0 - 14.0
02/07:30am 6.8 -7.2 2.2 72 1.9 WNW 65 74 35 40 1009.3 - 14.0
02/07:28am 7.1 -7.3 2.3 71 2.0 W 67 74 36 40 1009.1 - 14.0
02/07:20am 7.2 -3.4 1.0 65 2.5 W 46 67 25 36 1009.0 - 14.0
02/07:13am 6.8 -3.2 1.9 71 2.0 W 44 59 24 32 1009.1 - 14.0
02/07:09am 6.5 -4.6 2.4 75 1.7 WSW 50 63 27 34 1009.1 - 14.0
02/07:01am 7.3 -4.1 0.6 62 2.7 W 50 74 27 40 1008.2 - 14.0
02/07:00am 7.3 -3.8 0.0 60 2.9 W 48 65 26 35 1008.3 - 14.0
02/06:34am 7.1 -5.1 0.0 60 2.8 W 54 74 29 40 1008.0 - 14.0
02/06:30am 7.0 -4.4 0.5 63 2.6 W 50 63 27 34 1008.2 - 14.0
02/06:00am 7.0 -3.6 0.5 63 2.6 W 46 70 25 38 1007.6 1007.8 14.0
02/05:52am 6.8 -5.8 1.4 68 2.2 WNW 57 76 31 41 1007.2 - 14.0
02/05:30am 6.1 -6.5 1.1 70 2.0 WNW 57 72 31 39 1006.9 - 14.0
02/05:21am 5.5 -6.8 2.1 79 1.4 W 56 74 30 40 1007.4 - 13.8
02/05:00am 7.5 -6.0 0.8 62 2.7 WNW 61 76 33 41 1006.3 - 13.2
02/04:30am 7.7 -6.5 3.3 74 1.9 WNW 67 83 36 45 1005.3 - 13.2
02/04:15am 7.1 -8.0 -0.3 59 2.9 WNW 69 87 37 47 1005.9 - 13.2
02/04:00am 6.8 -8.4 3.0 77 1.6 WNW 72 85 39 46 1005.1 - 13.2
02/03:59am 6.8 -7.8 3.3 78 1.5 WNW 69 85 37 46 1004.9 - 13.2
02/03:57am 6.2 -3.5 2.9 79 1.4 WNW 43 63 23 34 1005.8 - 13.0
02/03:54am 6.2 -3.2 2.1 75 1.7 W 41 52 22 28 1006.2 - 13.0
02/03:45am 5.3 -7.6 1.6 77 1.5 W 59 78 32 42 1006.6 - 13.0
02/03:44am 5.6 -7.7 1.6 75 1.6 W 61 78 33 42 1006.7 - 13.0
02/03:37am 7.9 -7.4 2.2 67 2.4 WNW 72 93 39 50 1004.7 - 13.0
02/03:30am 7.7 -8.8 1.7 66 2.5 WNW 78 93 42 50 1005.0 - 13.0
02/03:00am 7.7 -7.6 2.2 68 2.3 WNW 72 95 39 51 1004.2 1004.4 13.0
02/02:30am 7.3 -8.9 1.5 66 2.4 WNW 76 89 41 48 1004.7 - 13.0
02/02:06am 7.6 -8.9 1.8 67 2.4 NW 78 96 42 52 1003.6 - 13.0
02/02:00am 7.5 -8.2 2.0 68 2.3 NW 74 87 40 47 1004.2 - 13.0
02/01:52am 7.1 -9.1 3.4 77 1.6 NW 78 96 42 52 1004.2 - 13.0
02/01:30am 7.3 -10.1 2.3 70 2.1 NW 83 96 45 52 1003.8 - 13.0
02/01:04am 7.2 -8.1 2.2 70 2.1 WNW 72 91 39 49 1003.4 - 13.0
02/01:00am 7.2 -7.3 3.7 78 1.5 WNW 69 80 37 43 1003.9 - 13.0
02/12:43am 6.2 -9.7 3.1 80 1.3 WNW 76 95 41 51 1004.9 - 12.8
02/12:30am 6.3 -10.8 0.8 68 2.2 WNW 80 95 43 51 1003.9 - 12.8
02/12:00am 5.1 -11.7 2.4 83 1.1 WNW 80 106 43 57 1004.2 1004.4 12.4
 
Date/Time
EST
Temp
°C
App
Temp
°C
Dew
Point
Rel
Hum
%
Delta-T
°C
Wind Press
QNH
hPa
Press
MSL
hPa
Rain
since 9 am
mm
Dir
 
Spd
km/h
Gust
km/h
Spd
kts
Gust
kts
01/11:58pm 4.7 -13.1 2.0 83 1.1 WNW 85 106 46 57 1004.6 - 12.4
01/11:57pm 4.8 -13.7 2.6 86 0.9 WNW 89 106 48 57 1004.5 - 12.2
01/11:42pm 7.4 -10.6 2.9 73 1.9 NW 87 106 47 57 1002.5 - 12.2
01/11:30pm 6.9 -11.6 2.4 73 1.9 NW 89 100 48 54 1002.0 - 12.2
01/11:23pm 6.5 -12.8 2.2 74 1.8 NW 93 100 50 54 1001.9 - 12.2
01/11:02pm 5.9 -11.2 2.8 80 1.3 WNW 82 100 44 54 1003.4 - 12.0
01/11:00pm 6.0 -10.1 4.2 88 0.8 WNW 78 93 42 50 1003.7 - 12.0
01/10:55pm 5.3 -11.9 2.4 81 1.2 W 82 93 44 50 1004.5 - 12.0
01/10:44pm 7.4 -8.9 4.9 84 1.1 NW 80 89 43 48 1002.9 - 12.0
01/10:30pm 6.4 -13.9 4.1 85 1.0 NW 100 120 54 65 1001.7 - 11.8
01/10:10pm 8.5 -9.2 4.7 77 1.7 NW 87 106 47 57 1001.8 - 11.4
01/10:00pm 8.6 -9.3 3.6 71 2.2 NW 87 104 47 56 1001.4 - 11.4
01/09:52pm 8.5 -8.5 4.2 74 1.9 NW 83 102 45 55 1001.9 - 11.4
01/09:30pm 7.7 -6.7 5.3 85 1.1 WNW 70 85 38 46 1002.8 - 11.4
01/09:23pm 7.6 -6.5 5.4 86 1.0 WNW 69 80 37 43 1003.6 - 11.4
01/09:00pm 8.6 -10.5 3.3 69 2.3 NW 93 102 50 55 1001.9 1002.1 11.4
01/08:32pm 8.9 -9.2 6.3 84 1.2 NW 91 113 49 61 1001.0 - 11.4
01/08:30pm 8.8 -8.6 6.2 84 1.2 NW 87 98 47 53 1001.5 - 11.2
01/08:13pm 9.0 -7.3 5.0 76 1.8 NW 80 95 43 51 1002.3 - 11.2
01/08:12pm 8.9 -2.0 5.6 80 1.5 NNW 52 87 28 47 1002.3 - 11.2
01/08:10pm 8.3 -1.6 6.4 88 0.9 NNW 48 67 26 36 1002.7 - 11.2
01/08:00pm 7.1 -3.3 6.2 94 0.4 NNW 50 57 27 31 1003.2 - 10.8
01/07:34pm 8.2 -6.3 4.6 78 1.6 NNW 70 89 38 48 1002.9 - 10.6
01/07:30pm 8.0 -6.5 4.4 78 1.6 NW 70 83 38 45 1002.9 - 10.6
01/07:11pm 7.8 -5.1 4.2 78 1.6 NNW 61 80 33 43 1002.9 - 10.6
01/07:00pm 7.3 -6.1 5.3 87 0.9 NNW 65 80 35 43 1003.3 - 10.6
01/06:44pm 6.9 -8.3 5.1 88 0.8 NNW 74 93 40 50 1003.0 - 10.4
01/06:30pm 6.9 -8.2 5.6 91 0.6 NW 74 91 40 49 1003.3 - 10.0
01/06:14pm 6.9 -9.7 5.3 89 0.7 NW 82 93 44 50 1003.1 - 9.0
01/06:05pm 7.0 -13.5 5.0 87 0.9 NW 102 109 55 59 1001.7 - 8.8
01/06:00pm 6.8 -9.9 5.9 94 0.4 NW 83 113 45 61 1001.9 1002.1 8.6
01/05:58pm 7.0 -8.9 6.8 99 0.1 NW 80 104 43 56 1002.1 - 8.4
01/05:30pm 4.6 -12.2 4.4 99 0.1 NNW 82 93 44 50 1002.7 - 6.4
01/05:27pm 4.6 -12.4 4.6 100 0.0 NW 83 93 45 50 1002.7 - 6.0
01/05:22pm 3.5 -18.0 3.5 100 0.0 NW 106 124 57 67 1003.2 - 4.0
01/05:18pm 7.3 -14.4 5.8 90 0.7 WNW 109 124 59 67 1003.0 - 1.0
01/05:00pm 11.1 -4.4 7.0 76 2.0 NNW 78 115 42 62 1000.8 - 0.8
01/04:30pm 11.1 -4.7 7.6 79 1.7 NNW 80 102 43 55 1001.5 - 0.8
01/04:00pm 11.3 -5.5 7.4 77 1.9 NNW 85 120 46 65 1001.7 - 0.8
01/03:51pm 11.2 -5.2 7.3 77 1.9 NNW 83 111 45 60 1001.4 - 0.8
01/03:40pm 10.7 -3.0 8.3 85 1.2 NNW 70 91 38 49 1003.0 - 0.8
01/03:39pm 10.6 -2.9 8.4 86 1.1 NNW 69 83 37 45 1003.1 - 0.8
01/03:30pm 10.7 -7.5 7.8 82 1.4 NNW 93 115 50 62 1002.8 - 0.6
01/03:00pm 11.7 -3.2 6.5 70 2.5 NW 74 117 40 63 1002.7 1002.8 0.6
01/02:56pm 11.8 -5.2 6.4 69 2.6 NNW 85 113 46 61 1002.4 - 0.6
01/02:30pm 11.3 -4.7 8.1 81 1.6 NNW 82 130 44 70 1004.5 - 0.6
01/02:24pm 11.5 -5.0 6.9 73 2.2 NNW 83 130 45 70 1003.5 - 0.6
01/02:00pm 11.9 -3.7 6.7 70 2.5 NNW 78 102 42 55 1005.2 - 0.6
01/01:30pm 11.5 -2.4 6.7 72 2.3 NNW 69 91 37 49 1006.6 - 0.6
01/01:14pm 11.4 -0.5 7.1 75 2.1 NNW 59 80 32 43 1007.4 - 0.6
01/01:12pm 11.5 0.7 7.8 78 1.8 NNW 54 65 29 35 1008.0 - 0.6
01/01:00pm 11.4 -3.0 7.1 75 2.1 NNW 72 95 39 51 1007.6 - 0.6
01/12:30pm 10.4 -1.7 7.7 83 1.3 NNW 61 82 33 44 1008.6 - 0.4
01/12:00pm 11.2 -0.4 6.6 73 2.2 NNW 57 78 31 42 1009.5 1009.7 0.4
01/11:30am 10.5 -0.6 7.8 83 1.3 NNW 56 74 30 40 1011.0 - 0.2
01/11:00am 10.7 -0.1 7.8 82 1.4 NNW 54 74 29 40 1011.8 - 0.2
01/10:30am 10.0 -0.8 7.5 84 1.2 NNW 54 74 29 40 1012.4 - 0.2
01/10:00am 9.9 0.6 7.4 84 1.2 NNW 46 67 25 36 1013.8 - 0.0
01/09:46am 10.3 0.6 7.4 82 1.4 NNW 48 67 26 36 1014.1 - 0.0
01/09:30am 10.4 0.2 7.1 80 1.6 NNW 50 67 27 36 1014.0 - 0.0
01/09:25am 10.3 0.3 6.0 75 2.0 NNW 48 67 26 36 1013.8 - 0.0
01/09:00am 10.2 0.8 7.3 82 1.4 NW 46 63 25 34 1014.9 1015.2 3.2
01/08:30am 10.1 0.7 7.2 82 1.4 NNW 46 61 25 33 1015.5 - 3.2
01/08:08am 10.3 0.8 6.9 79 1.6 NNW 46 65 25 35 1015.6 - 3.2
01/08:00am 10.2 0.5 7.3 82 1.4 NNW 48 65 26 35 1015.7 - 3.2
01/07:30am 10.2 1.5 7.5 83 1.3 NNW 43 57 23 31 1016.1 - 3.2
01/07:00am 10.3 1.6 7.6 83 1.3 NNW 43 54 23 29 1016.7 - 3.2
01/06:30am 10.2 0.9 7.7 84 1.2 NNW 46 56 25 30 1016.8 - 3.2
01/06:00am 10.2 2.6 7.7 84 1.2 NW 37 56 20 30 1016.8 1017.0 3.2
01/05:30am 10.2 -1.0 7.5 83 1.3 NNW 56 74 30 40 1016.9 - 3.2
01/05:02am 9.8 -2.8 7.3 84 1.2 NNW 63 82 34 44 1017.3 - 3.2
01/05:00am 9.8 -3.6 7.1 83 1.3 NNW 67 82 36 44 1017.1 - 3.2
01/04:51am 10.1 -1.7 7.4 83 1.3 NNW 59 78 32 42 1017.1 - 3.2
01/04:30am 10.2 -1.5 7.7 84 1.2 NNW 59 70 32 38 1017.5 - 3.2
01/04:00am 10.0 -1.4 7.7 86 1.1 NNW 57 72 31 39 1018.0 - 3.2
01/03:30am 9.9 -1.6 6.9 81 1.4 NNW 57 65 31 35 1018.4 - 3.2
01/03:00am 9.8 0.1 7.3 84 1.2 NNW 48 65 26 35 1018.8 1019.0 3.2
01/02:58am 9.7 0.4 7.4 85 1.1 NNW 46 65 25 35 1018.8 - 3.2
01/02:30am 9.6 0.9 7.5 87 1.0 NNW 43 57 23 31 1019.3 - 3.2
01/02:00am 9.2 1.1 8.8 97 0.2 NNW 41 52 22 28 1019.5 - 3.2
01/01:30am 9.0 2.0 8.4 96 0.3 NNW 35 46 19 25 1019.7 - 2.4
01/01:00am 9.2 2.2 8.4 95 0.4 NNW 35 44 19 24 1020.0 - 1.2
01/12:30am 9.2 2.8 8.4 95 0.4 NNW 32 43 17 23 1020.3 - 0.8
01/12:04am 9.5 2.5 8.5 93 0.5 NNW 35 54 19 29 1020.5 - 0.2
01/12:00am 9.6 2.2 8.2 91 0.7 NNW 37 54 20 29 1020.6 1020.9 0.2
 
Date/Time
EST
Temp
°C
App
Temp
°C
Dew
Point
Rel
Hum
%
Delta-T
°C
Wind Press
QNH
hPa
Press
MSL
hPa
Rain
since 9 am
mm
Dir
 
Spd
km/h
Gust
km/h
Spd
kts
Gust
kts
30/11:30pm 9.5 2.5 8.3 92 0.6 NNW 35 44 19 24 1020.8 - 0.0
30/11:00pm 9.5 3.1 8.5 93 0.5 NNW 32 39 17 21 1021.1 - 0.0
30/10:30pm 9.7 1.5 8.3 91 0.7 NNW 41 54 22 29 1021.3 - 0.0
30/10:00pm 10.0 0.7 7.7 86 1.1 NNW 46 59 25 32 1021.0 - 0.0
30/09:30pm 9.9 0.3 8.0 88 0.9 NNW 48 61 26 33 1021.2 - 0.0
30/09:00pm 10.1 1.2 7.8 86 1.1 NNW 44 56 24 30 1021.4 1021.7 0.0
30/08:30pm 9.8 -0.3 7.3 84 1.2 NNW 50 63 27 34 1021.6 - 0.0
30/08:00pm 10.3 0.7 7.8 84 1.2 NNW 48 61 26 33 1021.7 - 0.0
30/07:30pm 10.4 1.5 7.7 83 1.3 NNW 44 56 24 30 1021.8 - 0.0
30/07:00pm 10.3 -0.1 7.6 83 1.3 NNW 52 63 28 34 1021.5 - 0.0
30/06:30pm 10.4 -0.1 7.3 81 1.5 NNW 52 65 28 35 1021.5 - 0.0
30/06:00pm 10.5 -0.4 7.4 81 1.5 NNW 54 65 29 35 1021.4 1021.7 0.0
30/05:30pm 10.6 -0.4 6.8 77 1.8 NNW 54 65 29 35 1021.2 - 0.0
30/05:00pm 10.6 0.4 7.0 78 1.7 NNW 50 61 27 33 1021.3 - 0.0
30/04:30pm 10.7 1.5 6.5 75 2.0 NNW 44 56 24 30 1021.4 - 0.0
30/04:00pm 10.8 0.8 6.1 73 2.2 NNW 48 59 26 32 1021.4 - 0.0
30/03:30pm 10.4 -0.1 5.6 72 2.2 NW 50 61 27 33 1021.4 - 0.0
30/03:00pm 10.9 1.1 5.5 69 2.5 WNW 46 65 25 35 1021.3 1021.6 0.0
30/02:41pm 10.5 1.0 6.7 77 1.8 NNW 46 65 25 35 1021.4 - 0.0
30/02:30pm 10.4 1.0 7.3 81 1.5 NNW 46 59 25 32 1021.6 - 0.0
30/02:00pm 10.6 0.7 6.8 77 1.8 NNW 48 61 26 33 1021.6 - 0.0
30/01:30pm 10.6 1.2 7.0 78 1.7 NNW 46 54 25 29 1021.9 - 0.0
30/01:00pm 10.5 0.9 6.2 75 2.0 NNW 46 54 25 29 1022.2 - 0.0

Other Formats:

Comma delimited format used in spreadsheet applications
http://www.bom.gov.au/fwo/IDT60801/IDT60801.94962.axf

JavaScript Object Notation format (JSON) in row-major order
http://www.bom.gov.au/fwo/IDT60801/IDT60801.94962.json